Time;durP1;ratioP1;P1;durP2;ratioP2;P2;SDS_P1;SDS_P2;PMS_P1;PMS_P2;Temp;Humidity;BMP_temperature;BMP_pressure;BME280_temperature;BME280_humidity;BME280_pressure;Samples;Min_cycle;Max_cycle;Signal;HPM_P1;HPM_P2
2023/08/30 00:00:04;;;;;;;8.50;6.60;;;;;;;17.69;100.00;96596.32;110247;1241;69277;-67
2023/08/30 00:02:54;;;;;;;9.40;6.80;;;;;;;17.70;100.00;96625.10;110100;1243;59707;-67
2023/08/30 00:05:24;;;;;;;6.70;5.90;;;;;;;17.67;100.00;96628.91;110117;1245;59678;-67
2023/08/30 00:07:55;;;;;;;7.10;5.10;;;;;;;17.67;100.00;96631.02;110198;1243;70474;-67
2023/08/30 00:10:26;;;;;;;7.70;5.80;;;;;;;17.69;100.00;96634.27;110212;1241;69288;-67
2023/08/30 00:12:57;;;;;;;7.20;5.90;;;;;;;17.70;100.00;96642.50;110193;1243;69279;-68
2023/08/30 00:15:28;;;;;;;8.90;7.10;;;;;;;17.75;100.00;96646.34;110168;1241;59753;-68
2023/08/30 00:17:58;;;;;;;8.10;5.10;;;;;;;17.74;100.00;96635.83;110177;1244;59672;-67
2023/08/30 00:20:30;;;;;;;9.50;6.60;;;;;;;17.72;100.00;96639.66;110198;1243;71400;-67
2023/08/30 00:23:00;;;;;;;5.80;4.60;;;;;;;17.67;100.00;96619.23;110203;1243;69132;-67
2023/08/30 00:25:31;;;;;;;7.60;6.10;;;;;;;17.64;100.00;96616.20;110195;1244;69297;-67
2023/08/30 00:28:02;;;;;;;7.00;5.70;;;;;;;17.52;100.00;96621.45;110219;1244;59720;-67
2023/08/30 00:30:33;;;;;;;9.50;6.40;;;;;;;17.49;100.00;96629.71;110159;1241;59747;-68
2023/08/30 00:33:05;;;;;;;8.90;5.70;;;;;;;17.53;100.00;96638.48;110171;1244;71649;-67
2023/08/30 00:35:35;;;;;;;6.40;5.20;;;;;;;17.52;100.00;96629.23;110349;1242;69853;-68
2023/08/30 00:38:07;;;;;;;5.70;4.40;;;;;;;17.53;100.00;96637.72;110248;1240;68709;-66
2023/08/30 00:40:41;;;;;;;8.00;6.30;;;;;;;17.57;100.00;96660.23;110314;1244;59666;-67
2023/08/30 00:43:12;;;;;;;7.00;4.90;;;;;;;17.60;100.00;96663.36;110315;1241;59751;-67
2023/08/30 00:45:44;;;;;;;6.50;5.10;;;;;;;17.62;100.00;96654.91;110281;1241;70454;-67
2023/08/30 00:48:17;;;;;;;6.60;4.70;;;;;;;17.69;100.00;96630.85;110258;1243;69419;-67
2023/08/30 00:50:49;;;;;;;6.30;4.80;;;;;;;17.72;100.00;96601.77;110243;1242;68599;-67
2023/08/30 00:53:19;;;;;;;7.30;5.30;;;;;;;17.70;100.00;96572.90;110208;1242;59740;-67
2023/08/30 00:55:50;;;;;;;6.10;4.40;;;;;;;17.71;100.00;96574.85;110236;1241;59692;-67
2023/08/30 00:58:21;;;;;;;7.10;4.70;;;;;;;17.74;100.00;96567.35;110146;1245;70035;-67
2023/08/30 01:00:51;;;;;;;5.90;5.00;;;;;;;17.75;100.00;96577.77;110327;1242;67824;-67
2023/08/30 01:03:23;;;;;;;4.40;3.70;;;;;;;17.73;100.00;96585.02;110145;1245;69269;-67
2023/08/30 01:05:57;;;;;;;6.40;3.90;;;;;;;17.73;100.00;96576.45;110179;1245;59673;-67
2023/08/30 01:08:28;;;;;;;5.10;3.80;;;;;;;17.75;100.00;96576.72;110279;1241;59703;-67
2023/08/30 01:11:08;;;;;;;5.60;4.10;;;;;;;17.78;100.00;96583.27;110135;1245;70695;-66
2023/08/30 01:13:55;;;;;;;6.50;4.20;;;;;;;17.76;100.00;96592.71;110269;1242;69103;-66
2023/08/30 01:16:25;;;;;;;7.10;5.50;;;;;;;17.73;100.00;96590.77;110342;1240;69066;-66
2023/08/30 01:18:56;;;;;;;;;;;;;;;17.75;100.00;96578.55;110302;1242;59679;-67
2023/08/30 01:21:46;;;;;;;6.00;4.10;;;;;;;17.76;100.00;96587.02;110285;1241;59722;-66
2023/08/30 01:24:32;;;;;;;5.40;3.60;;;;;;;17.73;100.00;96597.77;110183;1241;71416;-66
2023/08/30 01:27:14;;;;;;;5.10;4.00;;;;;;;17.73;100.00;96585.27;110292;1242;69233;-66
2023/08/30 01:29:47;;;;;;;4.30;3.60;;;;;;;17.72;100.00;96575.00;110178;1243;69281;-67
2023/08/30 01:32:20;;;;;;;5.50;3.90;;;;;;;17.73;100.00;96568.36;110291;1242;59740;-66
2023/08/30 01:34:52;;;;;;;6.30;4.40;;;;;;;17.73;100.00;96557.27;110322;1241;59660;-66
2023/08/30 01:37:25;;;;;;;5.20;4.00;;;;;;;17.73;100.00;96554.02;110294;1242;71521;-67
2023/08/30 01:39:57;;;;;;;6.50;4.30;;;;;;;17.73;100.00;96540.52;110309;1241;68601;-66
2023/08/30 01:42:28;;;;;;;4.90;3.90;;;;;;;17.75;100.00;96536.35;110298;1243;69092;-66
2023/08/30 01:45:04;;;;;;;5.40;4.40;;;;;;;17.78;100.00;96540.95;110258;1240;59614;-66
2023/08/30 01:47:39;;;;;;;5.10;4.00;;;;;;;17.79;100.00;96514.65;110326;1240;59798;-67
2023/08/30 01:50:14;;;;;;;7.60;4.30;;;;;;;17.78;100.00;96473.97;110157;1243;71087;-66
2023/08/30 01:52:52;;;;;;;7.20;5.80;;;;;;;17.73;100.00;96449.72;110321;1242;69226;-66
2023/08/30 01:55:29;;;;;;;7.30;5.60;;;;;;;17.70;100.00;96456.16;110258;1241;68450;-67
2023/08/30 01:58:03;;;;;;;7.00;5.20;;;;;;;17.66;100.00;96480.66;110384;1242;59760;-67
2023/08/30 02:00:36;;;;;;;8.60;5.30;;;;;;;17.66;100.00;96495.36;110266;1242;59639;-67
2023/08/30 02:03:13;;;;;;;7.40;5.20;;;;;;;17.65;100.00;96501.38;110280;1242;71194;-66
2023/08/30 02:06:02;;;;;;;6.60;5.30;;;;;;;17.61;100.00;96482.52;110183;1245;69090;-67
2023/08/30 02:09:03;;;;;;;7.50;6.30;;;;;;;17.56;100.00;96475.86;110090;1244;69311;-67
2023/08/30 02:11:43;;;;;;;8.60;6.50;;;;;;;17.50;100.00;96493.15;110159;1241;60090;-66
2023/08/30 02:14:17;;;;;;;8.60;6.10;;;;;;;17.49;100.00;96494.27;110186;1243;59708;-66
2023/08/30 02:16:55;;;;;;;7.00;5.40;;;;;;;17.51;100.00;96483.28;110159;1241;71438;-67
2023/08/30 02:19:28;;;;;;;8.00;5.40;;;;;;;17.50;100.00;96464.16;110133;1241;68600;-66
2023/08/30 02:22:00;;;;;;;6.90;5.60;;;;;;;17.48;100.00;96445.83;110175;1244;69354;-66
2023/08/30 02:24:30;;;;;;;7.00;5.20;;;;;;;17.47;100.00;96440.70;110166;1245;59741;-66
2023/08/30 02:27:01;;;;;;;6.90;4.70;;;;;;;17.44;100.00;96448.45;110158;1244;59665;-66
2023/08/30 02:29:34;;;;;;;6.90;5.90;;;;;;;17.43;100.00;96463.16;110188;1244;71367;-66
2023/08/30 02:32:06;;;;;;;5.90;5.20;;;;;;;17.42;100.00;96472.27;110194;1241;68617;-64
2023/08/30 02:34:37;;;;;;;5.40;4.70;;;;;;;17.40;100.00;96469.67;110092;1241;67733;-66
2023/08/30 02:37:09;;;;;;;6.90;4.80;;;;;;;17.38;100.00;96467.44;110135;1244;59679;-67
2023/08/30 02:39:40;;;;;;;6.20;4.70;;;;;;;17.36;100.00;96467.66;110186;1241;59750;-66
2023/08/30 02:42:10;;;;;;;4.00;3.20;;;;;;;17.31;100.00;96464.48;110136;1244;71301;-66
2023/08/30 02:44:44;;;;;;;5.20;3.70;;;;;;;17.28;100.00;96459.48;110169;1243;69238;-66
2023/08/30 02:47:20;;;;;;;4.80;3.20;;;;;;;17.28;100.00;96448.83;110135;1244;68680;-67
2023/08/30 02:49:52;;;;;;;4.40;3.10;;;;;;;17.28;100.00;96455.36;110140;1244;59678;-67
2023/08/30 02:52:23;;;;;;;6.00;3.70;;;;;;;17.27;100.00;96462.11;110215;1243;59781;-66
2023/08/30 02:54:53;;;;;;;4.70;3.30;;;;;;;17.26;100.00;96456.40;110173;1243;71194;-67
2023/08/30 02:57:24;;;;;;;5.50;3.50;;;;;;;17.24;100.00;96453.13;110205;1245;69762;-67
2023/08/30 02:59:56;;;;;;;4.80;3.50;;;;;;;17.24;100.00;96469.69;110144;1244;69307;-66
2023/08/30 03:02:28;;;;;;;5.90;4.80;;;;;;;17.22;100.00;96480.42;110244;1241;59801;-67
2023/08/30 03:05:00;;;;;;;5.50;4.40;;;;;;;17.19;100.00;96483.95;110167;1241;59782;-66
2023/08/30 03:07:31;;;;;;;5.30;4.00;;;;;;;17.17;100.00;96496.38;110219;1242;71447;-66
2023/08/30 03:10:01;;;;;;;6.70;4.70;;;;;;;17.15;100.00;96496.13;110270;1241;69322;-67
2023/08/30 03:12:35;;;;;;;5.70;4.50;;;;;;;17.13;100.00;96511.12;110234;1240;68510;-66
2023/08/30 03:15:09;;;;;;;6.90;4.50;;;;;;;17.13;100.00;96510.60;110172;1244;59770;-66
2023/08/30 03:17:40;;;;;;;5.70;4.10;;;;;;;17.10;100.00;96483.13;110261;1242;59801;-66
2023/08/30 03:20:12;;;;;;;5.30;4.20;;;;;;;17.06;100.00;96462.95;110239;1240;71321;-66
2023/08/30 03:22:44;;;;;;;5.70;3.90;;;;;;;17.00;100.00;96443.38;110257;1240;68538;-66
2023/08/30 03:25:16;;;;;;;5.90;4.10;;;;;;;16.94;100.00;96412.23;110231;1242;69163;-66
2023/08/30 03:27:46;;;;;;;5.80;4.50;;;;;;;16.91;100.00;96380.38;110212;1240;59762;-66
2023/08/30 03:30:18;;;;;;;6.60;4.00;;;;;;;16.86;100.00;96347.33;110225;1241;59803;-66
2023/08/30 03:32:50;;;;;;;5.50;3.70;;;;;;;16.83;100.00;96333.10;110240;1242;71442;-66
2023/08/30 03:35:21;;;;;;;7.10;4.00;;;;;;;16.78;100.00;96299.52;110225;1241;69021;-66
2023/08/30 03:37:54;;;;;;;4.30;3.20;;;;;;;16.75;100.00;96291.73;110147;1245;69307;-66
2023/08/30 03:40:26;;;;;;;4.40;3.40;;;;;;;16.73;100.00;96317.89;110189;1244;59681;-66
2023/08/30 03:42:57;;;;;;;5.10;3.60;;;;;;;16.71;100.00;96328.25;110267;1242;59702;-66
2023/08/30 03:45:34;;;;;;;4.40;3.10;;;;;;;16.70;100.00;96344.17;110189;1245;71409;-66
2023/08/30 03:48:05;;;;;;;4.30;3.30;;;;;;;16.71;100.00;96368.58;110143;1244;69224;-68
2023/08/30 03:50:36;;;;;;;4.80;3.80;;;;;;;16.71;100.00;96390.55;110169;1244;68318;-66
2023/08/30 03:53:06;;;;;;;6.90;3.80;;;;;;;16.67;100.00;96352.55;110135;1244;59767;-65
2023/08/30 03:55:37;;;;;;;4.70;3.30;;;;;;;16.64;100.00;96353.70;110279;1240;59688;-66
2023/08/30 03:58:10;;;;;;;5.10;2.90;;;;;;;16.65;100.00;96377.00;110326;1242;70627;-66
2023/08/30 04:00:42;;;;;;;3.40;2.40;;;;;;;16.62;100.00;96382.73;110312;1242;69311;-66
2023/08/30 04:03:14;;;;;;;4.80;3.30;;;;;;;16.61;100.00;96415.08;110224;1243;69295;-66
2023/08/30 04:05:44;;;;;;;4.30;2.60;;;;;;;16.61;100.00;96417.10;110225;1242;59758;-66
2023/08/30 04:08:14;;;;;;;4.60;2.70;;;;;;;16.63;100.00;96421.20;110250;1241;59710;-67
2023/08/30 04:10:48;;;;;;;4.30;3.00;;;;;;;16.64;100.00;96412.33;110265;1242;71389;-67
2023/08/30 04:13:19;;;;;;;3.70;2.80;;;;;;;16.61;100.00;96406.11;110223;1242;69234;-65
2023/08/30 04:15:49;;;;;;;3.40;2.30;;;;;;;16.63;100.00;96398.38;110110;1241;69742;-66
2023/08/30 04:18:19;;;;;;;4.10;2.80;;;;;;;16.63;100.00;96408.13;110240;1242;59736;-67
2023/08/30 04:20:48;;;;;;;4.20;2.70;;;;;;;16.64;100.00;96407.38;110256;1242;59672;-66
2023/08/30 04:23:18;;;;;;;4.40;2.90;;;;;;;16.65;100.00;96389.43;110307;1241;71970;-66
2023/08/30 04:25:48;;;;;;;5.50;3.20;;;;;;;16.68;100.00;96373.48;110311;1244;69141;-67
2023/08/30 04:28:18;;;;;;;;;;;;;;;16.69;100.00;96365.34;110470;1241;68894;-66
2023/08/30 04:30:50;;;;;;;5.40;3.20;;;;;;;16.67;100.00;96365.79;110189;1242;59734;-69
2023/08/30 04:33:20;;;;;;;4.20;2.80;;;;;;;16.67;100.00;96366.09;110180;1242;59685;-67
2023/08/30 04:35:53;;;;;;;;;;;;;;;16.67;100.00;96358.27;110323;1241;70767;-68
2023/08/30 04:38:24;;;;;;;4.70;3.00;;;;;;;16.69;100.00;96379.86;110184;1243;67625;-68
2023/08/30 04:41:00;;;;;;;4.00;2.50;;;;;;;16.70;100.00;96385.17;110282;1242;68648;-67
2023/08/30 04:43:36;;;;;;;3.80;2.50;;;;;;;16.74;100.00;96391.33;110246;1242;60089;-68
2023/08/30 04:46:06;;;;;;;;;;;;;;;16.76;100.00;96390.14;110341;1241;59678;-68
2023/08/30 04:48:35;;;;;;;4.00;2.30;;;;;;;16.77;100.00;96390.33;110426;1242;71298;-67
2023/08/30 04:51:05;;;;;;;4.00;2.00;;;;;;;16.81;100.00;96396.15;110297;1240;69643;-67
2023/08/30 04:53:34;;;;;;;3.30;2.60;;;;;;;16.85;100.00;96392.61;110330;1242;69653;-67
2023/08/30 04:56:12;;;;;;;3.20;2.10;;;;;;;16.90;100.00;96381.25;110363;1241;60124;-67
2023/08/30 04:58:42;;;;;;;3.00;2.20;;;;;;;16.92;100.00;96382.52;110260;1242;59661;-66
2023/08/30 05:01:13;;;;;;;3.00;2.10;;;;;;;16.94;100.00;96398.39;110167;1241;71774;-67
2023/08/30 05:03:47;;;;;;;6.00;3.10;;;;;;;16.90;100.00;96411.34;110230;1241;69774;-67
2023/08/30 05:06:17;;;;;;;4.20;2.80;;;;;;;16.87;100.00;96421.85;110258;1242;69282;-67
2023/08/30 05:08:47;;;;;;;6.60;3.50;;;;;;;16.82;100.00;96421.58;110250;1240;59726;-68
2023/08/30 05:11:18;;;;;;;6.30;4.10;;;;;;;16.75;100.00;96426.17;110234;1241;59693;-69
2023/08/30 05:13:48;;;;;;;5.70;4.10;;;;;;;16.74;100.00;96429.16;110226;1240;70706;-66
2023/08/30 05:16:17;;;;;;;5.80;3.80;;;;;;;16.66;100.00;96415.34;110184;1241;69801;-67
2023/08/30 05:18:50;;;;;;;6.50;4.00;;;;;;;16.63;100.00;96412.27;110180;1241;69348;-67
2023/08/30 05:21:19;;;;;;;5.40;3.30;;;;;;;16.62;100.00;96415.30;110253;1242;59798;-67
2023/08/30 05:23:49;;;;;;;4.90;3.30;;;;;;;16.60;100.00;96423.33;110230;1242;59662;-68
2023/08/30 05:26:19;;;;;;;4.40;3.00;;;;;;;16.64;100.00;96425.68;110173;1243;71559;-67
2023/08/30 05:28:48;;;;;;;3.60;3.10;;;;;;;16.68;100.00;96426.78;110279;1242;69267;-67
2023/08/30 05:31:18;;;;;;;4.60;3.50;;;;;;;16.73;100.00;96425.30;110147;1241;68374;-68
2023/08/30 05:34:04;;;;;;;4.90;3.10;;;;;;;16.78;100.00;96421.77;110217;1241;59670;-67
2023/08/30 05:36:52;;;;;;;3.20;2.40;;;;;;;16.81;100.00;96427.27;110225;1242;59676;-67
2023/08/30 05:39:34;;;;;;;3.70;2.30;;;;;;;16.84;100.00;96416.44;110261;1240;71987;-67
2023/08/30 05:42:03;;;;;;;4.20;2.50;;;;;;;16.84;100.00;96420.95;110198;1241;69641;-67
2023/08/30 05:44:32;;;;;;;;;;;;;;;16.84;100.00;96427.55;110233;1241;69174;-68
2023/08/30 05:47:02;;;;;;;4.40;2.60;;;;;;;16.80;100.00;96442.27;110145;1240;59737;-68
2023/08/30 05:49:31;;;;;;;3.50;2.60;;;;;;;16.83;100.00;96448.87;110184;1244;59730;-67
2023/08/30 05:52:02;;;;;;;3.00;2.30;;;;;;;16.82;100.00;96461.99;110267;1242;70490;-67
2023/08/30 05:54:33;;;;;;;;;;;;;;;16.84;100.00;96461.83;110259;1240;69181;-67
2023/08/30 05:57:03;;;;;;;4.40;2.90;;;;;;;16.88;100.00;96467.14;110274;1245;68681;-68
2023/08/30 05:59:32;;;;;;;3.60;2.90;;;;;;;16.92;100.00;96470.43;110238;1241;59709;-67
2023/08/30 06:02:02;;;;;;;6.00;4.50;;;;;;;16.91;100.00;96466.92;110268;1240;59602;-67
2023/08/30 06:04:32;;;;;;;7.60;4.20;;;;;;;16.88;100.00;96462.75;110249;1241;71488;-67
2023/08/30 06:07:03;;;;;;;5.80;3.70;;;;;;;16.82;100.00;96458.86;110248;1242;69732;-68
2023/08/30 06:09:32;;;;;;;5.90;3.50;;;;;;;16.75;100.00;96445.73;110175;1241;69854;-68
2023/08/30 06:12:01;;;;;;;3.50;2.80;;;;;;;16.78;100.00;96440.57;110310;1242;59738;-67
2023/08/30 06:14:31;;;;;;;4.10;3.00;;;;;;;16.90;100.00;96432.42;110262;1241;59756;-67
2023/08/30 06:17:00;;;;;;;4.20;2.70;;;;;;;17.00;100.00;96438.86;110247;1242;71459;-68
2023/08/30 06:19:29;;;;;;;;;;;;;;;17.07;100.00;96449.80;110229;1242;69247;-67
2023/08/30 06:21:59;;;;;;;4.20;3.30;;;;;;;17.11;100.00;96446.34;110250;1242;70003;-68
2023/08/30 06:24:28;;;;;;;4.40;2.90;;;;;;;17.21;100.00;96434.09;110262;1241;59664;-68
2023/08/30 06:26:59;;;;;;;4.20;2.50;;;;;;;17.33;100.00;96431.89;110254;1241;59744;-66
2023/08/30 06:40:58;;;;;;;7.20;4.20;;;;;;;18.13;100.00;96449.94;107199;1270;609262;-68
2023/08/30 06:43:28;;;;;;;5.20;3.80;;;;;;;18.31;100.00;96457.71;108719;1253;396854;-67
2023/08/30 06:45:59;;;;;;;4.70;3.40;;;;;;;18.41;100.00;96451.48;110125;1244;57710;-66
2023/08/30 06:48:28;;;;;;;3.90;3.50;;;;;;;18.48;100.00;96451.12;109959;1245;68130;-66
2023/08/30 06:50:58;;;;;;;3.30;2.80;;;;;;;18.58;100.00;96449.09;110142;1243;69206;-67
2023/08/30 06:53:28;;;;;;;4.70;3.20;;;;;;;18.65;100.00;96452.09;110083;1242;68560;-67
2023/08/30 06:56:00;;;;;;;6.30;4.50;;;;;;;18.61;100.00;96466.97;110107;1244;57701;-67
2023/08/30 06:58:29;;;;;;;7.20;5.40;;;;;;;18.58;100.00;96486.06;110118;1244;57693;-67
2023/08/30 07:00:58;;;;;;;7.50;5.40;;;;;;;18.53;100.00;96496.52;110164;1244;68246;-67
2023/08/30 07:03:27;;;;;;;9.00;5.80;;;;;;;18.45;100.00;96490.25;110109;1242;69214;-67
2023/08/30 07:05:56;;;;;;;7.20;5.10;;;;;;;18.38;100.00;96491.48;110093;1245;69470;-67
2023/08/30 07:08:26;;;;;;;5.50;4.10;;;;;;;18.45;100.00;96492.20;110095;1242;58096;-67
2023/08/30 07:10:56;;;;;;;7.10;5.60;;;;;;;18.56;100.00;96502.56;110119;1244;58112;-67
2023/08/30 07:13:26;;;;;;;7.00;5.00;;;;;;;18.62;100.00;96501.16;110088;1244;70138;-67
2023/08/30 07:15:55;;;;;;;;;;;;;;;18.59;100.00;96501.27;109953;1246;69345;-67
2023/08/30 07:18:24;;;;;;;6.90;4.50;;;;;;;18.64;100.00;96501.29;110128;1245;68518;-67
2023/08/30 07:20:54;;;;;;;6.70;4.90;;;;;;;18.71;100.00;96499.16;110128;1244;58594;-67
2023/08/30 07:23:23;;;;;;;5.70;4.30;;;;;;;18.80;100.00;96504.79;110126;1243;58127;-67
2023/08/30 07:25:53;;;;;;;6.00;4.50;;;;;;;18.92;100.00;96503.17;110128;1244;69811;-67
2023/08/30 07:28:23;;;;;;;6.90;4.80;;;;;;;19.05;100.00;96497.05;110130;1243;69703;-67
2023/08/30 07:30:52;;;;;;;7.20;4.40;;;;;;;19.14;100.00;96482.55;110132;1244;68542;-67
2023/08/30 07:33:21;;;;;;;7.80;5.80;;;;;;;19.24;100.00;96485.15;110109;1246;58126;-67
2023/08/30 07:35:50;;;;;;;7.20;5.40;;;;;;;19.37;100.00;96486.38;110123;1245;58140;-67
2023/08/30 07:38:19;;;;;;;6.50;5.30;;;;;;;19.47;100.00;96497.02;110093;1245;68227;-67
2023/08/30 07:40:48;;;;;;;5.70;4.90;;;;;;;19.60;100.00;96497.16;110129;1244;69554;-67
2023/08/30 07:43:17;;;;;;;6.90;4.90;;;;;;;19.72;100.00;96481.39;110112;1244;68517;-67
2023/08/30 07:45:46;;;;;;;7.80;4.90;;;;;;;19.83;100.00;96494.13;110110;1244;58068;-67
2023/08/30 07:48:15;;;;;;;7.60;5.30;;;;;;;19.99;100.00;96490.00;110121;1244;58093;-67
2023/08/30 07:50:44;;;;;;;7.60;5.30;;;;;;;20.04;100.00;96490.98;110144;1244;70357;-67
2023/08/30 07:53:13;;;;;;;8.30;5.60;;;;;;;20.12;100.00;96478.96;110135;1245;69675;-67
2023/08/30 07:55:42;;;;;;;7.50;4.80;;;;;;;20.25;100.00;96485.81;110114;1244;69285;-67
2023/08/30 07:58:11;;;;;;;5.90;3.80;;;;;;;20.41;100.00;96487.67;110144;1244;58250;-67
2023/08/30 08:00:40;;;;;;;6.30;4.80;;;;;;;20.51;100.00;96480.64;110139;1245;58078;-66
2023/08/30 08:03:12;;;;;;;7.50;4.70;;;;;;;20.56;100.00;96477.16;110105;1245;69014;-66
2023/08/30 08:05:41;;;;;;;5.50;3.50;;;;;;;20.67;100.00;96475.30;110106;1243;69060;-67
2023/08/30 08:08:10;;;;;;;7.00;3.50;;;;;;;20.76;100.00;96463.86;110094;1244;70269;-66
2023/08/30 08:10:39;;;;;;;;;;;;;;;20.80;100.00;96461.55;110071;1243;58052;-66
2023/08/30 08:13:08;;;;;;;3.80;3.00;;;;;;;20.83;100.00;96458.69;110168;1245;58079;-67
2023/08/30 08:15:38;;;;;;;6.60;3.60;;;;;;;20.82;100.00;96462.75;110088;1245;69765;-65
2023/08/30 08:18:07;;;;;;;4.40;2.90;;;;;;;20.83;100.00;96467.52;110060;1245;69067;-66
2023/08/30 08:20:37;;;;;;;4.90;3.50;;;;;;;20.85;100.00;96466.80;110137;1245;69250;-66
2023/08/30 08:23:06;;;;;;;8.70;3.60;;;;;;;20.83;99.78;96469.48;110060;1245;58112;-67
2023/08/30 08:25:35;;;;;;;;;;;;;;;20.80;100.00;96471.02;109865;1245;58105;-67
2023/08/30 08:28:05;;;;;;;5.00;3.00;;;;;;;20.91;100.00;96471.15;110094;1245;69942;-67
2023/08/30 08:30:36;;;;;;;4.40;3.20;;;;;;;21.03;100.00;96460.42;110111;1244;69163;-68
2023/08/30 08:33:05;;;;;;;3.90;3.20;;;;;;;21.19;100.00;96450.17;110131;1244;68892;-66
2023/08/30 08:35:34;;;;;;;;;;;;;;;21.27;99.92;96450.56;110103;1245;58101;-65
2023/08/30 08:38:03;;;;;;;4.00;3.50;;;;;;;21.47;99.91;96449.89;110119;1245;58098;-65
2023/08/30 08:40:39;;;;;;;4.00;3.00;;;;;;;21.74;99.35;96443.59;110101;1245;69084;-65
2023/08/30 08:43:13;;;;;;;3.60;2.70;;;;;;;22.06;98.27;96444.52;110140;1246;69530;-65
2023/08/30 08:45:45;;;;;;;3.00;2.50;;;;;;;22.49;94.59;96445.46;110106;1245;69299;-65
2023/08/30 08:48:15;;;;;;;4.00;2.50;;;;;;;22.92;86.99;96447.27;110082;1245;58156;-65
2023/08/30 08:50:46;;;;;;;3.50;2.80;;;;;;;23.35;86.34;96440.55;110121;1245;58067;-66
2023/08/30 08:53:14;;;;;;;3.90;2.50;;;;;;;23.76;82.79;96442.95;110135;1244;70344;-66
2023/08/30 08:55:46;;;;;;;3.90;2.60;;;;;;;24.24;81.62;96438.41;110133;1244;69706;-66
2023/08/30 08:58:15;;;;;;;4.40;2.80;;;;;;;25.07;84.90;96432.90;110111;1244;69084;-67
2023/08/30 09:00:45;;;;;;;3.70;2.60;;;;;;;25.56;77.89;96416.42;110106;1245;58083;-66
2023/08/30 09:03:14;;;;;;;2.80;2.40;;;;;;;26.08;75.35;96405.95;110078;1245;58011;-65
2023/08/30 09:05:46;;;;;;;4.00;3.00;;;;;;;26.65;74.92;96406.37;110130;1244;70369;-65
2023/08/30 09:08:15;;;;;;;4.10;2.90;;;;;;;26.69;66.92;96413.20;110117;1243;70201;-65
2023/08/30 09:10:45;;;;;;;4.40;2.80;;;;;;;26.16;62.79;96410.09;110131;1244;68529;-66
2023/08/30 09:13:14;;;;;;;5.10;2.90;;;;;;;26.17;62.94;96414.43;110081;1243;58072;-66
2023/08/30 09:15:43;;;;;;;3.70;2.60;;;;;;;25.96;63.58;96406.48;110116;1245;58024;-65
2023/08/30 09:18:15;;;;;;;;;;;;;;;26.06;65.72;96399.77;110116;1245;70260;-65
2023/08/30 09:20:45;;;;;;;4.50;2.60;;;;;;;26.10;63.32;96401.21;110071;1245;69246;-65
2023/08/30 09:23:21;;;;;;;3.60;2.20;;;;;;;26.45;66.06;96394.42;110102;1244;69950;-66
2023/08/30 09:25:56;;;;;;;4.10;2.40;;;;;;;26.63;65.17;96388.27;110100;1245;58118;-66
2023/08/30 09:28:25;;;;;;;4.70;2.80;;;;;;;26.59;66.07;96378.01;110120;1245;58065;-67
2023/08/30 09:30:58;;;;;;;4.60;2.80;;;;;;;26.52;66.49;96370.80;110085;1243;68885;-66
2023/08/30 09:33:49;;;;;;;3.50;2.40;;;;;;;26.58;66.10;96368.18;110125;1245;69271;-65
2023/08/30 09:36:18;;;;;;;3.70;2.40;;;;;;;26.61;64.45;96368.06;110130;1245;69162;-66
2023/08/30 09:38:50;;;;;;;3.40;2.50;;;;;;;26.88;64.18;96366.70;110051;1245;58482;-66
2023/08/30 09:41:19;;;;;;;4.60;2.80;;;;;;;27.06;63.67;96370.00;110122;1245;58072;-66
2023/08/30 09:43:48;;;;;;;;;;;;;;;27.30;62.25;96376.09;110165;1245;69773;-66
2023/08/30 09:46:25;;;;;;;3.50;2.50;;;;;;;27.30;61.24;96374.95;110090;1245;70251;-66
2023/08/30 09:49:15;;;;;;;4.40;2.40;;;;;;;27.53;61.69;96376.57;110064;1245;69270;-66
2023/08/30 09:51:47;;;;;;;2.80;2.20;;;;;;;27.96;60.74;96382.02;110079;1244;58097;-66
2023/08/30 09:54:18;;;;;;;4.10;2.30;;;;;;;28.47;55.76;96384.08;110081;1245;58075;-66
2023/08/30 09:57:07;;;;;;;3.60;2.30;;;;;;;28.85;57.20;96375.02;110078;1244;69375;-66
2023/08/30 09:59:39;;;;;;;3.30;2.70;;;;;;;29.31;55.23;96369.20;110105;1245;69822;-66
2023/08/30 10:02:10;;;;;;;3.70;2.40;;;;;;;29.74;52.97;96368.23;110064;1245;68525;-68
2023/08/30 10:04:42;;;;;;;3.40;2.10;;;;;;;29.93;51.36;96361.84;110079;1242;58105;-67
2023/08/30 10:07:12;;;;;;;3.10;1.90;;;;;;;30.27;49.23;96364.76;110114;1244;58106;-68
2023/08/30 10:09:41;;;;;;;2.20;1.90;;;;;;;30.72;46.77;96361.23;110116;1244;69697;-66
2023/08/30 10:12:34;;;;;;;2.80;2.20;;;;;;;30.78;46.00;96358.70;110079;1245;69655;-67
2023/08/30 10:15:05;;;;;;;2.70;2.00;;;;;;;31.05;46.27;96360.04;110081;1244;69431;-67
2023/08/30 10:17:37;;;;;;;4.30;2.30;;;;;;;31.36;46.97;96363.20;110096;1244;58141;-67
2023/08/30 10:20:07;;;;;;;3.20;2.40;;;;;;;31.83;46.58;96359.79;110119;1245;58150;-67
2023/08/30 10:22:37;;;;;;;2.70;2.00;;;;;;;32.16;45.36;96351.46;110099;1244;69799;-67
2023/08/30 10:25:11;;;;;;;3.40;2.60;;;;;;;32.31;43.72;96357.19;110096;1245;69837;-67
2023/08/30 10:27:45;;;;;;;3.50;2.00;;;;;;;32.47;42.78;96356.04;110122;1245;69308;-67
2023/08/30 10:30:16;;;;;;;2.90;2.00;;;;;;;32.47;40.60;96349.59;110093;1245;58202;-66
2023/08/30 10:32:45;;;;;;;3.60;2.50;;;;;;;32.13;41.21;96348.06;110096;1245;58072;-66
2023/08/30 10:35:17;;;;;;;5.30;2.50;;;;;;;32.27;40.48;96353.37;110126;1245;69603;-67
2023/08/30 10:37:57;;;;;;;3.40;2.40;;;;;;;32.31;40.69;96347.69;110110;1245;69064;-67
2023/08/30 10:40:26;;;;;;;3.70;2.20;;;;;;;32.47;40.73;96351.70;110101;1244;69114;-67
2023/08/30 10:43:02;;;;;;;2.70;2.20;;;;;;;32.64;41.08;96356.77;110083;1245;58076;-68
2023/08/30 10:45:33;;;;;;;4.20;2.00;;;;;;;32.82;40.40;96349.44;110179;1251;58028;-66
2023/08/30 10:48:03;;;;;;;3.40;2.30;;;;;;;32.65;40.04;96343.57;110088;1244;70171;-67
2023/08/30 10:50:34;;;;;;;2.50;2.00;;;;;;;32.37;39.47;96344.32;110143;1244;69795;-67
2023/08/30 10:53:12;;;;;;;2.50;2.30;;;;;;;31.99;39.74;96342.80;110092;1245;69878;-67
2023/08/30 10:55:41;;;;;;;2.60;1.90;;;;;;;31.84;40.16;96339.46;110116;1245;58885;-66
2023/08/30 10:58:14;;;;;;;2.60;1.80;;;;;;;32.13;39.72;96341.14;110104;1245;58849;-67
2023/08/30 11:00:44;;;;;;;3.70;2.40;;;;;;;32.12;40.02;96341.30;110082;1245;69810;-67
2023/08/30 11:03:14;;;;;;;3.40;2.10;;;;;;;32.27;40.00;96343.80;110073;1245;68481;-66
2023/08/30 11:05:43;;;;;;;2.10;1.90;;;;;;;32.31;39.93;96340.38;110070;1245;69657;-67
2023/08/30 11:08:13;;;;;;;2.60;1.90;;;;;;;32.32;39.54;96340.11;110121;1244;58903;-68
2023/08/30 11:10:42;;;;;;;3.00;2.00;;;;;;;32.31;40.04;96337.35;110039;1245;58878;-66
2023/08/30 11:13:15;;;;;;;4.00;2.20;;;;;;;32.51;40.24;96344.77;110106;1245;69847;-66
2023/08/30 11:15:44;;;;;;;3.10;2.20;;;;;;;32.50;38.97;96345.52;110109;1246;68550;-66
2023/08/30 11:18:19;;;;;;;6.30;2.10;;;;;;;32.46;39.26;96346.41;110070;1245;68721;-65
2023/08/30 11:20:48;;;;;;;3.40;1.90;;;;;;;32.36;39.81;96343.13;110108;1245;58937;-66
2023/08/30 11:23:17;;;;;;;2.90;2.20;;;;;;;32.52;39.64;96340.22;110137;1245;59301;-66
2023/08/30 11:25:51;;;;;;;3.30;2.40;;;;;;;32.57;39.34;96336.52;110059;1246;71139;-67
2023/08/30 11:28:26;;;;;;;3.70;2.50;;;;;;;32.39;40.39;96337.77;110075;1246;69036;-67
2023/08/30 11:30:55;;;;;;;3.10;2.10;;;;;;;32.01;40.45;96331.27;110062;1244;69978;-67
2023/08/30 11:33:24;;;;;;;3.00;2.00;;;;;;;32.00;40.40;96321.71;110066;1244;58900;-68
2023/08/30 11:35:54;;;;;;;3.90;2.50;;;;;;;32.63;40.29;96320.09;110046;1245;58864;-67
2023/08/30 11:38:24;;;;;;;2.10;1.90;;;;;;;32.83;39.44;96319.66;110089;1244;69820;-67
2023/08/30 11:40:53;;;;;;;3.10;2.10;;;;;;;32.91;39.35;96309.27;110123;1245;69845;-67
2023/08/30 11:43:22;;;;;;;4.40;2.40;;;;;;;32.91;39.29;96301.13;110087;1245;69286;-67
2023/08/30 11:45:56;;;;;;;2.50;2.00;;;;;;;32.89;39.52;96294.63;110068;1243;58947;-65
2023/08/30 11:48:26;;;;;;;3.60;2.70;;;;;;;32.97;39.58;96296.81;110101;1245;58925;-65
2023/08/30 11:50:56;;;;;;;3.30;2.20;;;;;;;33.26;38.95;96298.05;110208;1243;70542;-66
2023/08/30 11:53:25;;;;;;;3.80;2.70;;;;;;;33.02;39.05;96301.20;110163;1246;69691;-67